createdAt,value
2022-08-18T00:01:10.440Z,17.77
2022-08-18T00:03:57.430Z,17.95
2022-08-18T00:06:30.467Z,18.50
2022-08-18T00:09:00.327Z,17.15
2022-08-18T00:11:40.479Z,18.25
2022-08-18T00:14:21.715Z,17.80
2022-08-18T00:16:54.339Z,17.60
2022-08-18T00:19:43.604Z,16.60
2022-08-18T00:22:14.874Z,18.30
2022-08-18T00:24:48.448Z,17.60
2022-08-18T00:27:23.260Z,17.35
2022-08-18T00:29:52.709Z,17.30
2022-08-18T00:32:24.424Z,17.40
2022-08-18T00:34:53.318Z,17.48
2022-08-18T00:37:22.173Z,17.33
2022-08-18T00:39:53.174Z,17.83
2022-08-18T00:42:27.331Z,17.85
2022-08-18T00:45:01.966Z,18.23
2022-08-18T00:47:41.752Z,18.30
2022-08-18T00:50:16.980Z,18.77
2022-08-18T00:52:55.648Z,18.10
2022-08-18T00:55:24.114Z,18.40
2022-08-18T00:57:53.981Z,18.10
2022-08-18T01:00:22.970Z,17.85
2022-08-18T01:02:55.653Z,18.65
2022-08-18T01:05:31.038Z,18.42
2022-08-18T01:08:00.019Z,18.10
2022-08-18T01:10:28.543Z,18.35
2022-08-18T01:12:58.565Z,18.63
2022-08-18T01:15:30.200Z,18.98
2022-08-18T01:18:20.529Z,18.65
2022-08-18T01:21:11.609Z,18.33
2022-08-18T01:23:41.450Z,18.33
2022-08-18T01:26:09.527Z,18.55
2022-08-18T01:28:41.273Z,18.48
2022-08-18T01:31:10.371Z,18.70
2022-08-18T01:33:44.951Z,19.55
2022-08-18T01:36:16.689Z,20.08
2022-08-18T01:38:47.446Z,20.17
2022-08-18T01:41:27.027Z,19.75
2022-08-18T01:43:58.702Z,20.38
2022-08-18T01:46:27.549Z,19.63
2022-08-18T01:48:56.017Z,19.65
2022-08-18T01:51:39.495Z,19.23
2022-08-18T01:54:13.009Z,19.42
2022-08-18T01:56:42.438Z,19.52
2022-08-18T01:59:15.223Z,20.27
2022-08-18T02:01:50.615Z,19.65
2022-08-18T02:04:35.580Z,19.88
2022-08-18T02:07:07.241Z,19.35
2022-08-18T02:09:37.783Z,19.30
2022-08-18T02:12:07.652Z,19.65
2022-08-18T02:14:36.161Z,20.17
2022-08-18T02:17:07.853Z,20.10
2022-08-18T02:19:36.774Z,20.50
2022-08-18T02:22:06.111Z,20.45
2022-08-18T02:24:35.899Z,20.70
2022-08-18T02:27:04.814Z,21.17
2022-08-18T02:29:33.285Z,20.85
2022-08-18T02:32:01.753Z,21.83
2022-08-18T02:34:30.262Z,19.98
2022-08-18T02:37:00.273Z,20.58
2022-08-18T02:39:29.064Z,19.90
2022-08-18T02:41:59.009Z,20.15
2022-08-18T02:44:27.521Z,19.92
2022-08-18T02:46:56.142Z,19.48
2022-08-18T02:49:25.007Z,19.73
2022-08-18T02:51:53.688Z,20.77
2022-08-18T02:54:23.273Z,19.00
2022-08-18T02:56:52.300Z,20.80
2022-08-18T02:59:24.354Z,20.27
2022-08-18T03:01:55.086Z,20.63
2022-08-18T03:04:29.624Z,21.42
2022-08-18T03:07:04.050Z,20.83
2022-08-18T03:09:33.456Z,21.63
2022-08-18T03:12:01.927Z,21.40
2022-08-18T03:14:31.825Z,22.30
2022-08-18T03:17:01.042Z,21.77
2022-08-18T03:19:30.287Z,20.85
2022-08-18T03:22:03.099Z,20.40
2022-08-18T03:24:32.999Z,20.15
2022-08-18T03:27:01.906Z,19.85
2022-08-18T03:29:32.975Z,18.73
2022-08-18T03:32:02.152Z,17.80
2022-08-18T03:34:30.802Z,18.90
2022-08-18T03:36:59.308Z,18.70
2022-08-18T03:39:28.690Z,18.85
2022-08-18T03:42:01.259Z,18.15
2022-08-18T03:44:33.793Z,17.50
2022-08-18T03:47:03.202Z,18.23
2022-08-18T03:49:32.506Z,18.35
2022-08-18T03:52:01.429Z,18.13
2022-08-18T03:54:32.396Z,17.55
2022-08-18T03:57:01.483Z,18.23
2022-08-18T03:59:32.174Z,18.58
2022-08-18T04:02:01.113Z,18.27
2022-08-18T04:04:29.852Z,19.55
2022-08-18T04:07:04.781Z,18.55
2022-08-18T04:09:33.718Z,18.67
2022-08-18T04:12:10.484Z,19.05
2022-08-18T04:14:48.612Z,19.90
2022-08-18T04:17:17.861Z,19.50
2022-08-18T04:19:47.022Z,18.05
2022-08-18T04:22:17.077Z,17.50
2022-08-18T04:24:46.021Z,17.45
2022-08-18T04:27:14.553Z,18.75
2022-08-18T04:29:44.833Z,18.63
2022-08-18T04:32:13.309Z,18.50
2022-08-18T04:34:41.905Z,18.42
2022-08-18T04:37:11.026Z,19.30
2022-08-18T04:39:39.757Z,18.25
2022-08-18T04:42:08.524Z,19.27
2022-08-18T04:44:38.955Z,18.45
2022-08-18T04:47:09.162Z,18.30
2022-08-18T04:49:38.420Z,18.52
2022-08-18T04:52:40.710Z,18.38
2022-08-18T04:55:10.651Z,19.25
2022-08-18T04:57:39.257Z,18.65
2022-08-18T05:00:13.866Z,18.55
2022-08-18T05:02:44.058Z,20.27
2022-08-18T05:05:12.465Z,19.35
2022-08-18T05:07:46.061Z,19.05
2022-08-18T05:10:18.013Z,20.35
2022-08-18T05:12:49.229Z,20.45
2022-08-18T05:15:19.037Z,20.05
2022-08-18T05:17:49.861Z,19.67
2022-08-18T05:20:20.785Z,18.88
2022-08-18T05:22:49.958Z,19.60
2022-08-18T05:25:18.707Z,19.77
2022-08-18T05:27:47.463Z,20.10
2022-08-18T05:30:16.093Z,20.27
2022-08-18T05:32:49.588Z,20.08
2022-08-18T05:35:24.667Z,19.13
2022-08-18T05:38:14.035Z,19.50
2022-08-18T05:40:42.571Z,18.10
2022-08-18T05:43:11.262Z,19.55
2022-08-18T05:45:40.963Z,19.20
2022-08-18T05:48:10.919Z,19.55
2022-08-18T05:50:41.175Z,20.17
2022-08-18T05:53:14.570Z,19.75
2022-08-18T05:56:05.293Z,19.52
2022-08-18T05:58:36.681Z,18.27
2022-08-18T06:01:08.841Z,18.65
2022-08-18T06:03:46.531Z,18.60
2022-08-18T06:06:19.952Z,19.00
2022-08-18T06:08:53.966Z,19.13
2022-08-18T06:11:23.080Z,17.42
2022-08-18T06:13:57.692Z,17.60
2022-08-18T06:16:40.596Z,18.35
2022-08-18T06:19:19.827Z,16.95
2022-08-18T06:21:53.796Z,16.92
2022-08-18T06:24:27.773Z,16.58
2022-08-18T06:27:00.375Z,16.60
2022-08-18T06:29:41.511Z,16.92
2022-08-18T06:32:15.186Z,16.75
2022-08-18T06:35:04.257Z,15.73
2022-08-18T06:37:56.582Z,16.95
2022-08-18T06:40:25.241Z,16.00
2022-08-18T06:42:54.200Z,16.88
2022-08-18T06:45:35.732Z,16.85
2022-08-18T06:48:15.507Z,16.17
2022-08-18T06:50:58.775Z,16.55
2022-08-18T06:53:53.343Z,16.67
2022-08-18T06:56:26.310Z,16.63
2022-08-18T06:58:56.289Z,17.05
2022-08-18T07:01:25.134Z,16.17
2022-08-18T07:03:56.631Z,15.70
2022-08-18T07:06:32.405Z,15.63
2022-08-18T07:09:24.249Z,15.80
2022-08-18T07:12:05.973Z,15.43
2022-08-18T07:14:43.868Z,16.35
2022-08-18T07:17:14.220Z,14.80
2022-08-18T07:19:42.835Z,14.80
2022-08-18T07:22:13.332Z,14.05
2022-08-18T07:24:46.049Z,14.45
2022-08-18T07:27:16.029Z,14.98
2022-08-18T07:30:01.030Z,13.23
2022-08-18T07:32:34.585Z,14.95
2022-08-18T07:35:05.735Z,13.82
2022-08-18T07:37:36.542Z,13.50
2022-08-18T07:40:12.111Z,13.95
2022-08-18T07:42:56.766Z,15.60
2022-08-18T07:45:34.720Z,14.50
2022-08-18T07:48:27.303Z,13.65
2022-08-18T07:51:06.660Z,13.52
2022-08-18T07:53:54.752Z,14.45
2022-08-18T07:56:37.859Z,13.95
2022-08-18T07:59:12.167Z,13.80
2022-08-18T08:01:45.202Z,14.35
2022-08-18T08:04:26.202Z,13.50
2022-08-18T08:07:23.519Z,13.10
2022-08-18T08:09:58.020Z,13.38
2022-08-18T08:12:33.550Z,12.90
2022-08-18T08:15:08.949Z,12.90
2022-08-18T08:17:43.927Z,12.00
2022-08-18T08:20:22.368Z,11.85
2022-08-18T08:23:05.299Z,12.40
2022-08-18T08:25:47.660Z,12.25
2022-08-18T08:28:27.148Z,12.55
2022-08-18T08:31:25.549Z,11.68
2022-08-18T08:33:56.983Z,12.05
2022-08-18T08:36:29.056Z,11.85
2022-08-18T08:38:59.199Z,10.95
2022-08-18T08:41:33.845Z,11.13
2022-08-18T08:44:09.001Z,11.18
2022-08-18T08:46:43.489Z,10.45
2022-08-18T08:49:22.844Z,10.23
2022-08-18T08:51:56.859Z,10.32
2022-08-18T08:54:27.971Z,10.68
2022-08-18T08:56:59.607Z,10.00
2022-08-18T08:59:29.493Z,10.10
2022-08-18T09:02:37.670Z,10.07
2022-08-18T09:05:09.878Z,9.70
2022-08-18T09:08:23.097Z,10.05
2022-08-18T09:11:21.314Z,10.50
2022-08-18T09:14:24.655Z,10.77
2022-08-18T09:17:13.272Z,11.02
2022-08-18T09:19:58.094Z,10.63
2022-08-18T09:22:36.710Z,10.77
2022-08-18T09:25:10.800Z,10.45
2022-08-18T09:28:09.442Z,10.93
2022-08-18T09:30:55.297Z,10.98
2022-08-18T09:33:45.403Z,10.35
2022-08-18T09:36:30.269Z,10.82
2022-08-18T09:39:20.553Z,10.40
2022-08-18T09:41:54.190Z,10.73
2022-08-18T09:45:08.783Z,11.07
2022-08-18T09:48:28.269Z,10.77
2022-08-18T09:51:40.220Z,10.93
2022-08-18T09:54:21.193Z,10.10
2022-08-18T09:57:22.817Z,11.50
2022-08-18T10:00:28.416Z,11.13
2022-08-18T10:03:25.748Z,11.75
2022-08-18T10:06:15.875Z,11.13
2022-08-18T10:09:27.196Z,11.07
2022-08-18T10:12:42.997Z,11.30
2022-08-18T10:15:40.766Z,11.38
2022-08-18T10:18:45.522Z,10.73
2022-08-18T10:21:21.184Z,11.00
2022-08-18T10:24:14.749Z,11.20
2022-08-18T10:27:13.347Z,11.20
2022-08-18T10:29:56.861Z,11.50
2022-08-18T10:32:54.112Z,11.52
2022-08-18T10:35:59.139Z,10.40
2022-08-18T10:38:39.864Z,10.68
2022-08-18T10:41:22.335Z,10.82
2022-08-18T10:43:55.591Z,10.68
2022-08-18T10:46:51.455Z,11.10
2022-08-18T10:49:26.790Z,11.23
2022-08-18T10:52:33.934Z,10.48
2022-08-18T10:55:20.770Z,11.05
2022-08-18T10:58:09.233Z,11.63
2022-08-18T11:00:49.458Z,11.38
2022-08-18T11:03:51.979Z,10.85
2022-08-18T11:06:26.238Z,11.70
2022-08-18T11:08:58.038Z,10.70
2022-08-18T11:14:40.461Z,11.23
2022-08-18T11:17:14.636Z,11.32
2022-08-18T11:19:45.789Z,11.30
2022-08-18T11:22:31.104Z,11.20
2022-08-18T11:25:01.348Z,12.50
2022-08-18T11:27:35.760Z,11.30
2022-08-18T11:30:06.854Z,10.60
2022-08-18T11:32:42.546Z,11.85
2022-08-18T11:35:22.309Z,11.20
2022-08-18T11:37:56.780Z,11.57
2022-08-18T11:46:30.353Z,11.43
2022-08-18T11:49:04.427Z,11.50
2022-08-18T11:51:34.253Z,10.73
2022-08-18T11:54:05.181Z,11.07
2022-08-18T11:56:35.885Z,10.82
2022-08-18T11:59:07.889Z,11.18
2022-08-18T12:01:42.390Z,11.45
2022-08-18T12:04:23.337Z,10.55
2022-08-18T12:07:04.532Z,10.80
2022-08-18T12:12:30.865Z,10.57
2022-08-18T12:15:13.805Z,10.63
2022-08-18T12:17:52.582Z,9.90
2022-08-18T12:20:38.550Z,11.00
2022-08-18T12:23:07.039Z,10.43
2022-08-18T12:25:35.534Z,10.98
2022-08-18T12:28:10.951Z,11.30
2022-08-18T12:30:42.021Z,11.00
2022-08-18T12:33:12.567Z,11.00
2022-08-18T12:35:44.720Z,10.63
2022-08-18T12:38:14.504Z,10.90
2022-08-18T12:40:44.827Z,10.68
2022-08-18T12:43:14.174Z,10.45
2022-08-18T12:45:43.601Z,10.32
2022-08-18T12:48:12.408Z,10.18
2022-08-18T12:50:54.348Z,10.13
2022-08-18T12:53:29.736Z,10.60
2022-08-18T12:56:08.686Z,10.10
2022-08-18T12:58:40.461Z,10.20
2022-08-18T13:01:09.787Z,10.52
2022-08-18T13:03:42.591Z,11.70
2022-08-18T13:06:12.862Z,13.00
2022-08-18T13:08:48.010Z,10.55
2022-08-18T13:11:23.683Z,9.75
2022-08-18T13:13:56.084Z,9.80
2022-08-18T13:16:30.507Z,9.75
2022-08-18T13:18:59.999Z,10.48
2022-08-18T13:21:40.972Z,9.38
2022-08-18T13:24:10.431Z,10.43
2022-08-18T13:26:45.594Z,9.60
2022-08-18T13:29:15.567Z,9.80
2022-08-18T13:31:57.309Z,9.93
2022-08-18T13:34:29.978Z,9.48
2022-08-18T13:37:00.534Z,10.15
2022-08-18T13:39:33.850Z,9.38
2022-08-18T13:42:28.369Z,10.02
2022-08-18T13:44:53.314Z,9.65
2022-08-18T13:47:23.482Z,10.00
2022-08-18T13:49:58.595Z,9.80
2022-08-18T13:52:34.683Z,9.98
2022-08-18T13:55:16.753Z,9.82
2022-08-18T13:57:49.738Z,10.18
2022-08-18T14:00:29.684Z,9.63
2022-08-18T14:03:03.235Z,9.93
2022-08-18T14:05:36.792Z,10.43
2022-08-18T14:08:21.540Z,10.07
2022-08-18T14:10:52.250Z,9.55
2022-08-18T14:13:25.066Z,9.80
2022-08-18T14:15:54.706Z,8.93
2022-08-18T14:18:28.981Z,8.88
2022-08-18T14:21:22.970Z,9.25
2022-08-18T14:24:14.295Z,9.50
2022-08-18T14:26:50.334Z,9.45
2022-08-18T14:29:44.775Z,9.50
2022-08-18T14:32:08.566Z,9.43
2022-08-18T14:34:37.383Z,9.32
2022-08-18T14:37:06.316Z,9.90
2022-08-18T14:39:40.284Z,9.55
2022-08-18T14:42:09.269Z,9.45
2022-08-18T14:44:41.624Z,9.27
2022-08-18T14:47:24.175Z,9.68
2022-08-18T14:49:53.521Z,9.40
2022-08-18T14:52:24.216Z,10.18
2022-08-18T14:54:55.253Z,10.27
2022-08-18T14:57:24.145Z,9.88
2022-08-18T14:59:53.192Z,9.93
2022-08-18T15:02:26.069Z,9.18
2022-08-18T15:04:57.816Z,9.63
2022-08-18T15:07:27.002Z,9.18
2022-08-18T15:10:14.304Z,9.75
2022-08-18T15:12:45.239Z,9.07
2022-08-18T15:15:15.964Z,9.48
2022-08-18T15:17:50.471Z,9.07
2022-08-18T15:20:23.894Z,9.98
2022-08-18T15:23:18.161Z,9.60
2022-08-18T15:25:54.328Z,9.57
2022-08-18T15:28:25.298Z,9.02
2022-08-18T15:33:43.178Z,9.25
2022-08-18T15:36:16.100Z,9.25
2022-08-18T15:38:45.286Z,9.10
2022-08-18T15:41:29.051Z,9.23
2022-08-18T15:44:00.980Z,9.23
2022-08-18T15:46:29.863Z,9.85
2022-08-18T15:48:59.178Z,9.55
2022-08-18T15:51:35.441Z,8.70
2022-08-18T15:54:11.419Z,8.82
2022-08-18T15:56:43.231Z,8.63
2022-08-18T15:59:12.767Z,8.88
2022-08-18T16:01:43.429Z,9.70
2022-08-18T16:04:15.583Z,8.90
2022-08-18T16:06:47.773Z,8.82
2022-08-18T16:09:17.928Z,9.38
2022-08-18T16:11:48.138Z,8.10
2022-08-18T16:14:17.424Z,8.80
2022-08-18T16:16:46.277Z,8.77
2022-08-18T16:19:15.066Z,8.45
2022-08-18T16:21:43.830Z,9.48
2022-08-18T16:24:14.532Z,9.15
2022-08-18T16:26:45.425Z,8.85
2022-08-18T16:29:15.515Z,8.95
2022-08-18T16:31:44.310Z,8.32
2022-08-18T16:34:13.038Z,8.55
2022-08-18T16:36:41.918Z,8.52
2022-08-18T16:39:10.724Z,8.32
2022-08-18T16:41:39.864Z,8.13
2022-08-18T16:44:08.561Z,8.02
2022-08-18T16:46:38.822Z,8.13
2022-08-18T16:49:08.156Z,8.32
2022-08-18T16:51:37.203Z,8.10
2022-08-18T16:54:06.077Z,8.65
2022-08-18T16:56:36.035Z,7.93
2022-08-18T16:59:22.745Z,7.75
2022-08-18T17:02:22.138Z,8.57
2022-08-18T17:04:52.082Z,8.32
2022-08-18T17:07:21.043Z,9.00
2022-08-18T17:09:50.798Z,9.07
2022-08-18T17:12:19.585Z,8.20
2022-08-18T17:14:51.962Z,8.60
2022-08-18T17:17:22.517Z,8.20
2022-08-18T17:19:52.030Z,8.40
2022-08-18T17:22:20.838Z,8.52
2022-08-18T17:24:50.538Z,8.52
2022-08-18T17:27:26.352Z,8.63
2022-08-18T17:30:01.615Z,8.80
2022-08-18T17:35:14.314Z,9.13
2022-08-18T17:37:49.469Z,9.02
2022-08-18T17:40:21.191Z,9.00
2022-08-18T17:42:51.806Z,8.50
2022-08-18T17:45:22.191Z,9.02
2022-08-18T17:47:56.055Z,9.45
2022-08-18T17:50:45.491Z,9.07
2022-08-18T17:53:14.530Z,9.45
2022-08-18T17:55:45.222Z,9.73
2022-08-18T17:58:16.401Z,9.55
2022-08-18T18:00:45.349Z,9.48
2022-08-18T18:03:15.473Z,9.55
2022-08-18T18:05:47.334Z,9.82
2022-08-18T18:08:17.520Z,10.43
2022-08-18T18:11:05.374Z,9.57
2022-08-18T18:13:34.705Z,9.70
2022-08-18T18:16:19.853Z,10.80
2022-08-18T18:19:01.143Z,10.05
2022-08-18T18:21:57.540Z,9.40
2022-08-18T18:24:24.138Z,9.55
2022-08-18T18:26:53.464Z,9.52
2022-08-18T18:29:29.026Z,10.23
2022-08-18T18:32:01.710Z,9.55
2022-08-18T18:34:34.887Z,9.70
2022-08-18T18:37:04.363Z,9.70
2022-08-18T18:39:36.487Z,9.80
2022-08-18T18:42:14.465Z,9.85
2022-08-18T18:44:51.727Z,9.32
2022-08-18T18:47:37.698Z,10.00
2022-08-18T18:50:11.023Z,9.85
2022-08-18T18:52:44.661Z,9.02
2022-08-18T18:55:16.913Z,10.25
2022-08-18T18:57:49.419Z,9.52
2022-08-18T19:00:21.125Z,9.45
2022-08-18T19:02:57.937Z,10.20
2022-08-18T19:05:31.213Z,9.63
2022-08-18T19:08:06.250Z,10.38
2022-08-18T19:10:38.209Z,9.27
2022-08-18T19:13:12.396Z,10.35
2022-08-18T19:16:00.785Z,10.40
2022-08-18T19:18:31.019Z,9.93
2022-08-18T19:22:02.396Z,9.98
2022-08-18T19:23:58.633Z,10.35
2022-08-18T19:26:29.384Z,10.48
2022-08-18T19:29:12.409Z,10.35
2022-08-18T19:31:45.752Z,10.07
2022-08-18T19:34:16.657Z,12.32
2022-08-18T19:36:50.623Z,10.23
2022-08-18T19:39:20.755Z,10.77
2022-08-18T19:41:51.107Z,10.30
2022-08-18T19:44:32.472Z,9.90
2022-08-18T19:47:06.445Z,9.18
2022-08-18T19:49:37.246Z,10.13
2022-08-18T19:52:45.842Z,10.38
2022-08-18T19:55:11.769Z,9.75
2022-08-18T19:58:07.759Z,9.90
2022-08-18T20:00:42.384Z,10.52
2022-08-18T20:03:35.120Z,10.23
2022-08-18T20:06:34.373Z,10.00
2022-08-18T20:09:33.587Z,10.38
2022-08-18T20:12:17.721Z,10.50
2022-08-18T20:15:00.128Z,9.93
2022-08-18T20:17:28.945Z,9.70
2022-08-18T20:20:18.384Z,9.77
2022-08-18T20:22:47.995Z,9.35
2022-08-18T20:25:43.797Z,10.38
2022-08-18T20:28:40.257Z,9.80
2022-08-18T20:31:15.124Z,10.43
2022-08-18T20:33:47.336Z,9.75
2022-08-18T20:36:25.951Z,9.27
2022-08-18T20:38:55.568Z,9.60
2022-08-18T20:41:43.936Z,9.63
2022-08-18T20:44:43.912Z,9.45
2022-08-18T20:47:33.445Z,10.20
2022-08-18T20:50:24.924Z,9.60
2022-08-18T20:52:59.887Z,9.52
2022-08-18T20:55:34.490Z,10.02
2022-08-18T20:58:08.367Z,9.80
2022-08-18T21:00:39.009Z,10.00
2022-08-18T21:03:09.518Z,9.90
2022-08-18T21:05:39.571Z,10.05
2022-08-18T21:08:27.401Z,9.40
2022-08-18T21:10:57.974Z,10.35
2022-08-18T21:13:40.585Z,9.82
2022-08-18T21:16:09.759Z,10.88
2022-08-18T21:18:38.466Z,10.52
2022-08-18T21:21:14.682Z,10.00
2022-08-18T21:23:52.155Z,9.95
2022-08-18T21:26:20.777Z,10.20
2022-08-18T21:28:52.979Z,9.57
2022-08-18T21:31:43.289Z,10.18
2022-08-18T21:34:15.935Z,10.02
2022-08-18T21:36:51.514Z,9.93
2022-08-18T21:39:20.653Z,9.30
2022-08-18T21:41:51.563Z,8.65
2022-08-18T21:44:24.670Z,9.63
2022-08-18T21:46:53.947Z,9.70
2022-08-18T21:49:28.814Z,9.95
2022-08-18T21:51:57.570Z,9.75
2022-08-18T21:54:30.222Z,9.98
2022-08-18T21:57:22.261Z,9.60
2022-08-18T22:00:19.553Z,9.25
2022-08-18T22:02:52.386Z,9.77
2022-08-18T22:05:58.347Z,9.38
2022-08-18T22:08:22.665Z,9.02
2022-08-18T22:11:41.868Z,9.77
2022-08-18T22:14:35.740Z,9.35
2022-08-18T22:17:33.025Z,9.90
2022-08-18T22:20:43.171Z,9.77
2022-08-18T22:23:47.569Z,10.63
2022-08-18T22:26:21.574Z,10.65
2022-08-18T22:28:55.353Z,10.82
2022-08-18T22:31:24.318Z,10.02
2022-08-18T22:33:54.974Z,10.60
2022-08-18T22:36:26.591Z,10.27
2022-08-18T22:38:55.180Z,10.57
2022-08-18T22:41:23.747Z,10.38
2022-08-18T22:43:55.038Z,10.15
2022-08-18T22:46:25.074Z,10.13
2022-08-18T22:48:55.406Z,9.93
2022-08-18T22:51:25.207Z,10.05
2022-08-18T22:53:53.747Z,10.43
2022-08-18T22:56:22.776Z,9.60
2022-08-18T22:59:13.855Z,9.95
2022-08-18T23:01:48.193Z,9.80
2022-08-18T23:04:19.032Z,9.77
2022-08-18T23:06:51.841Z,10.57
2022-08-18T23:09:25.146Z,9.85
2022-08-18T23:11:54.398Z,10.77
2022-08-18T23:14:23.238Z,9.68
2022-08-18T23:16:51.820Z,9.90
2022-08-18T23:19:22.656Z,10.32
2022-08-18T23:21:51.614Z,10.10
2022-08-18T23:24:20.759Z,9.38
2022-08-18T23:26:50.122Z,10.15
2022-08-18T23:29:19.941Z,9.98
2022-08-18T23:31:49.031Z,9.95
2022-08-18T23:34:18.548Z,9.40
2022-08-18T23:36:53.457Z,10.10
2022-08-18T23:39:22.927Z,10.13
2022-08-18T23:41:51.943Z,9.57
2022-08-18T23:44:20.907Z,9.38
2022-08-18T23:46:52.485Z,9.73
2022-08-18T23:49:21.077Z,9.90
2022-08-18T23:51:55.112Z,9.60
2022-08-18T23:54:25.603Z,9.82
2022-08-18T23:56:54.155Z,9.57
2022-08-18T23:59:23.663Z,9.57
